• Join FlightAware (Why Join?)
  • Login
  • US Flag 
06:23AM EDT


 

Airport Tracker/Info


-or-


 

Live Flight TrackerFlight Track Log ✈ EJA922 ✈ 13-Aug-2013 ✈ KIAH - KCMH

Flight Track Log - Related Links

Times and Time Zones

All times are in EDT time to prevent confusion due to time zone crossing. See the EJA922 flight status page for this flight to view local times or setup timezone preferences in your user account.

Time Position Orientation Groundspeed Altitude Reporting Facility
EDT Latitude Longitude Course Direction KTS MPH feet Rate Location/Type
07:44AM 29.9614 -95.3411 81° East 176 203 700  Level Houston Center
07:45AM 29.9692 -95.2872 81° East 255 293 3,400 2,580 Climbing Houston Center
07:46AM 30.0342 -95.2647 17° North 249 287 5,700 2,160 Climbing Houston Center
07:47AM 30.1075 -95.2389 17° North 272 313 7,900 2,100 Climbing Houston Center
07:48AM 30.1850 -95.2125 16° North 289 333 10,000 1,980 Climbing Houston Center
07:49AM 30.2697 -95.1833 17° North 297 342 12,200 1,980 Climbing Houston Center
07:50AM 30.3578 -95.1539 16° North 320 368 14,300 2,100 Climbing Houston Center
07:51AM 30.4497 -95.1219 17° North 332 382 16,500 2,040 Climbing Houston Center
07:52AM 30.5403 -95.0908 16° North 336 387 18,500 1,980 Climbing Houston Center
07:53AM 30.6297 -95.0514 21° North 341 392 20,600 2,040 Climbing Houston Center
07:54AM 30.7267 -94.9889 29° Northeast 332 382 22,800 1,560 Climbing Houston Center
07:55AM 30.8125 -94.9358 28° Northeast 343 395 23,800 960 Climbing Houston Center
07:56AM 30.9042 -94.8789 28° Northeast 367 422 24,800 960 Climbing Houston Center
07:57AM 30.9992 -94.8189 28° Northeast 382 440 25,800 960 Climbing Houston Center
07:58AM 31.0972 -94.7572 28° Northeast 394 453 26,800 960 Climbing Houston Center
07:59AM 31.1975 -94.6925 29° Northeast 416 479 27,800 900 Climbing Houston Center
08:00AM 31.2942 -94.6239 31° Northeast 428 493 28,700 1,080 Climbing Houston Center
08:01AM 31.4153 -94.5428 30° Northeast 423 487 30,000 1,020 Climbing Houston Center
08:02AM 31.5172 -94.4725 30° Northeast 425 489 30,900 900 Climbing Houston Center
08:03AM 31.6206 -94.4006 31° Northeast 430 495 31,900 960 Climbing Houston Center
08:04AM 31.7253 -94.3272 31° Northeast 435 501 32,900 960 Climbing Houston Center
08:05AM 31.8303 -94.2539 31° Northeast 438 504 33,900 900 Climbing Houston Center
08:06AM 31.9011 -94.2053 30° Northeast 437 503 34,500 960 Climbing Fort Worth Center
08:07AM 32.0078 -94.1331 30° Northeast 437 503 35,500 960 Climbing Fort Worth Center
08:08AM 32.1144 -94.0556 32° Northeast 443 510 36,500 960 Climbing Fort Worth Center
08:09AM 32.2208 -93.9756 32° Northeast 443 510 37,500 960 Climbing Fort Worth Center
08:10AM 32.3292 -93.8978 31° Northeast 443 510 38,500 960 Climbing Fort Worth Center
08:11AM 32.4378 -93.8197 31° Northeast 443 510 39,500 900 Climbing Fort Worth Center
08:12AM 32.5461 -93.7414 31° Northeast 443 510 40,300 720 Climbing Fort Worth Center
08:13AM 32.6564 -93.6653 30° Northeast 443 510 41,000 300 Climbing Fort Worth Center
08:14AM 32.7689 -93.5842 31° Northeast 448 516 41,000  Level Fort Worth Center
08:15AM 32.8853 -93.5000 31° Northeast 467 537 41,000  Level Fort Worth Center
08:16AM 33.0017 -93.4156 31° Northeast 478 550 41,000  Level Fort Worth Center
08:17AM 33.1322 -93.3231 31° Northeast 487 560 41,000  Level Fort Worth Center
08:18AM 33.2483 -93.2381 31° Northeast 487 560 41,000  Level Fort Worth Center
08:20AM 33.4658 -93.0317 38° Northeast 498 573 41,000  Level Memphis Center
08:21AM 33.5581 -92.9097 48° Northeast 492 566 41,000  Level Memphis Center
08:22AM 33.6442 -92.7775 52° Northeast 492 566 41,000 300 Level Memphis Center
08:23AM 33.7322 -92.6528 50° Northeast 492 566 41,600 600 Climbing Memphis Center
08:24AM 33.8242 -92.5300 48° Northeast 492 566 42,200 600 Climbing Memphis Center
08:25AM 33.9139 -92.4122 47° Northeast 485 558 42,900 360 Climbing Memphis Center
08:26AM 34.0056 -92.2917 47° Northeast 480 552 43,000  Climbing Memphis Center
08:27AM 34.0950 -92.1731 48° Northeast 480 552 43,000  Level Memphis Center
08:28AM 34.1944 -92.0647 42° Northeast 480 552 43,000  Level Memphis Center
08:29AM 34.2983 -91.9536 41° Northeast 480 552 43,000  Level Memphis Center
08:30AM 34.3997 -91.8447 42° Northeast 480 552 43,000  Level Memphis Center
08:31AM 34.5011 -91.7356 42° Northeast 485 558 43,000  Level Memphis Center
08:32AM 34.5961 -91.6389 40° Northeast 486 559 43,000  Level Memphis Center
08:33AM 34.6972 -91.5242 43° Northeast 493 567 43,000  Level Memphis Center
08:34AM 34.8006 -91.4117 42° Northeast 493 567 43,000  Level Memphis Center
08:35AM 34.9036 -91.2992 42° Northeast 493 567 43,000  Level Memphis Center
08:36AM 35.0067 -91.1836 43° Northeast 493 567 43,000  Level Memphis Center
08:37AM 35.1244 -91.0553 42° Northeast 498 573 43,000  Level Memphis Center
08:38AM 35.2250 -90.9392 43° Northeast 498 573 43,000  Level Memphis Center
08:39AM 35.3297 -90.8253 42° Northeast 505 581 43,000  Level Memphis Center
08:40AM 35.4303 -90.7086 43° Northeast 499 574 43,000  Level Memphis Center
08:41AM 35.5369 -90.5892 42° Northeast 499 574 43,000  Level Memphis Center
08:42AM 35.6414 -90.4744 42° Northeast 499 574 43,000  Level Memphis Center
08:43AM 35.7250 -90.3697 45° Northeast 492 566 43,000  Level Memphis Center
08:44AM 35.8292 -90.2547 42° Northeast 492 566 43,000  Level Memphis Center
08:45AM 35.9292 -90.1367 44° Northeast 492 566 43,000  Level Memphis Center
08:46AM 36.0308 -90.0233 42° Northeast 497 572 43,000  Level Memphis Center
08:47AM 36.1347 -89.9022 43° Northeast 497 572 43,000  Level Memphis Center
08:48AM 36.2386 -89.7858 42° Northeast 497 572 43,000  Level Memphis Center
08:49AM 36.3422 -89.6689 42° Northeast 502 578 43,000  Level Memphis Center
08:50AM 36.4603 -89.5417 41° Northeast 502 578 43,000  Level Memphis Center
08:51AM 36.5678 -89.4139 44° Northeast 513 590 43,000  Level Memphis Center
08:52AM 36.6689 -89.2911 44° Northeast 513 590 43,000  Level Memphis Center
08:53AM 36.7700 -89.1681 44° Northeast 508 585 43,000  Level Memphis Center
08:54AM 36.8750 -89.0444 43° Northeast 503 579 43,000  Level Memphis Center
08:55AM 36.9756 -88.9261 43° Northeast 498 573 43,000  Level Memphis Center
08:56AM 37.0806 -88.8019 43° Northeast 503 579 43,000  Level Memphis Center
08:57AM 37.1808 -88.6778 45° Northeast 503 579 43,000  Level Memphis Center
08:58AM 37.2833 -88.5583 43° Northeast 503 579 43,000  Level Memphis Center
08:59AM 37.4375 -88.3633 45° Northeast 512 589 43,000  Level Indianapolis Center
09:00AM 37.5419 -88.2361 44° Northeast 515 593 43,000  Level Indianapolis Center
09:01AM 37.6467 -88.1064 44° Northeast 520 598 43,000  Level Indianapolis Center
09:02AM 37.7511 -87.9797 44° Northeast 517 595 43,000  Level Indianapolis Center
09:03AM 37.8608 -87.8456 44° Northeast 516 594 43,000 -60 Level Indianapolis Center
09:04AM 37.9528 -87.7006 51° Northeast 534 615 42,900 -840 Descending Indianapolis Center
09:06AM 38.0200 -87.5269 64° Northeast 548 631 41,400 -1,500 Descending Indianapolis Center
09:07AM 38.0861 -87.3494 65° Northeast 556 640 39,900 -1,440 Descending Indianapolis Center
09:08AM 38.1508 -87.1700 65° Northeast 563 648 38,500 -1,320 Descending Indianapolis Center
09:09AM 38.2303 -86.9539 65° Northeast 581 669 37,300 -1,260 Descending Indianapolis Center
09:10AM 38.2975 -86.7650 66° East 588 677 36,000 -1,440 Descending Indianapolis Center
09:11AM 38.3661 -86.5767 65° Northeast 588 677 34,400 -1,560 Descending Indianapolis Center
09:12AM 38.4350 -86.3831 66° East 595 685 32,900 -1,440 Descending Indianapolis Center
09:13AM 38.5042 -86.1906 65° Northeast 596 686 31,500 -960 Descending Indianapolis Center
09:14AM 38.5706 -86.0011 66° East 586 674 31,000 -420 Descending Indianapolis Center
09:15AM 38.6469 -85.7853 66° East 575 662 30,700 -1,080 Descending Indianapolis Center
09:16AM 38.7108 -85.6008 66° East 573 659 28,800 -1,860 Descending Indianapolis Center
09:17AM 38.7753 -85.4164 66° East 563 648 26,900 -1,860 Descending Indianapolis Center
09:18AM 38.8328 -85.2461 67° East 544 626 25,100 -1,440 Descending Indianapolis Center
09:19AM 38.8911 -85.0761 66° East 529 609 24,000 -540 Descending Indianapolis Center
09:20AM 38.9458 -84.9133 67° East 508 585 24,000  Level Indianapolis Center
09:21AM 39.0128 -84.7175 66° East 502 578 24,000  Level Indianapolis Center
09:22AM 39.0900 -84.5683 56° Northeast 504 580 24,000 -600 Level Indianapolis Center
09:23AM 39.1758 -84.4133 54° Northeast 509 586 22,800 -1,260 Descending Indianapolis Center
09:24AM 39.2547 -84.2692 55° Northeast 517 595 21,400 -1,500 Descending Indianapolis Center
09:25AM 39.3317 -84.1056 59° Northeast 508 585 19,800 -1,560 Descending Indianapolis Center
09:26AM 39.3911 -83.9472 64° Northeast 494 568 18,200 -1,800 Descending Indianapolis Center
09:27AM 39.4553 -83.7819 63° Northeast 474 545 16,200 -1,860 Descending Indianapolis Center
09:28AM 39.5122 -83.6317 64° Northeast 464 534 14,400 -1,860 Descending Indianapolis Center
09:29AM 39.5653 -83.4894 64° Northeast 430 495 12,600 -1,680 Descending Indianapolis Center
09:30AM 39.6264 -83.3611 58° Northeast 431 496 11,100 -960 Descending Indianapolis Center
09:31AM 39.6989 -83.2428 51° Northeast 413 475 10,600 -900 Descending Indianapolis Center
09:32AM 39.7539 -83.1536 51° Northeast 293 337 9,400 -1,080 Descending Indianapolis Center
09:33AM 39.8136 -83.0533 52° Northeast 305 351 8,400 -1,380 Descending Indianapolis Center
09:34AM 39.8564 -82.9847 51° Northeast 291 335 6,700 -1,320 Descending Indianapolis Center
09:35AM 39.9014 -82.9103 52° Northeast 258 297 6,000 -360 Descending Indianapolis Center
09:36AM 39.9100 -82.8189 83° East 237 273 6,000 -540 Level Indianapolis Center
09:37AM 39.9031 -82.7333 96° East 237 273 5,000 -1,020 Descending Indianapolis Center
09:38AM 39.8997 -82.6564 93° East 232 267 4,100 -1,020 Descending Indianapolis Center
09:39AM 39.9461 -82.6336 21° North 203 234 3,100 -540 Descending Indianapolis Center
09:40AM 39.9861 -82.6781 320° Northwest 167 192 3,000 -120 Descending Indianapolis Center
09:41AM 39.9925 -82.7444 277° West 172 198 2,900 -480 Descending Indianapolis Center
09:42AM 39.9956 -82.7997 274° West 147 169 2,100 -840 Descending Indianapolis Center
09:43AM 39.9994 -82.8494 276° West 135 155 1,300 -840 Descending Indianapolis Center
09:45AM 39.9833 -82.8833 270° West  Level FlightAware Approximate
09:52AM 39.9980 -82.8920 270° West  Level Estimated